Time;durP1;ratioP1;P1;durP2;ratioP2;P2;SDS_P1;SDS_P2;PMS_P1;PMS_P2;Temp;Humidity;BMP_temperature;BMP_pressure;BME280_temperature;BME280_humidity;BME280_pressure;Samples;Min_cycle;Max_cycle;Signal;HPM_P1;HPM_P2
2023/04/21 00:02:01;;;;;;;23.05;13.07;;;;;;;;;;4961180;28;20419;-51
2023/04/21 00:04:27;;;;;;;19.92;12.48;;;;;;;;;;4958929;28;20167;-52
2023/04/21 00:06:53;;;;;;;17.52;11.98;;;;;;;;;;4962481;28;20031;-56
2023/04/21 00:09:18;;;;;;;17.88;11.55;;;;;;;;;;4965739;28;20051;-53
2023/04/21 00:11:44;;;;;;;17.27;11.63;;;;;;;;;;4960286;28;20035;-52
2023/04/21 00:14:09;;;;;;;21.67;13.05;;;;;;;;;;4962707;28;20031;-55
2023/04/21 00:16:34;;;;;;;18.35;12.23;;;;;;;;;;4959272;28;20207;-54
2023/04/21 00:19:01;;;;;;;18.08;11.60;;;;;;;;;;4959275;28;20385;-57
2023/04/21 00:21:26;;;;;;;18.60;10.85;;;;;;;;;;4965744;28;20895;-54
2023/04/21 00:23:52;;;;;;;20.52;12.07;;;;;;;;;;4969655;28;20519;-54
2023/04/21 00:26:17;;;;;;;23.77;12.75;;;;;;;;;;4962325;28;20023;-53
2023/04/21 00:28:44;;;;;;;20.48;12.63;;;;;;;;;;4960722;28;20030;-53
2023/04/21 00:31:09;;;;;;;21.52;11.80;;;;;;;;;;4959629;28;20089;-51
2023/04/21 00:33:35;;;;;;;17.80;12.20;;;;;;;;;;4975893;28;20742;-51
2023/04/21 00:36:00;;;;;;;19.83;12.43;;;;;;;;;;4962230;28;20034;-57
2023/04/21 00:38:26;;;;;;;21.80;13.20;;;;;;;;;;4958727;28;20031;-56
2023/04/21 00:40:51;;;;;;;19.60;12.20;;;;;;;;;;4959755;28;20023;-52
2023/04/21 00:43:17;;;;;;;19.55;11.25;;;;;;;;;;4961039;28;20082;-51
2023/04/21 00:45:44;;;;;;;19.27;11.73;;;;;;;;;;4960581;28;20027;-56
2023/04/21 00:48:10;;;;;;;18.20;11.68;;;;;;;;;;4942391;28;20464;-51
2023/04/21 00:50:37;;;;;;;17.58;10.98;;;;;;;;;;4952921;28;20081;-58
2023/04/21 00:53:05;;;;;;;17.42;10.90;;;;;;;;;;4962658;28;20031;-53
2023/04/21 00:55:30;;;;;;;17.08;10.35;;;;;;;;;;4964432;28;20493;-54
2023/04/21 00:57:56;;;;;;;15.63;9.35;;;;;;;;;;4958918;28;20069;-53
2023/04/21 01:00:26;;;;;;;18.80;10.48;;;;;;;;;;4960499;28;20031;-54
2023/04/21 01:02:51;;;;;;;18.90;10.45;;;;;;;;;;4959636;28;20025;-52
2023/04/21 01:05:17;;;;;;;17.38;11.35;;;;;;;;;;4958680;28;20110;-55
2023/04/21 01:07:42;;;;;;;17.17;10.38;;;;;;;;;;4989997;23;20133;-57
2023/04/21 01:10:08;;;;;;;17.75;10.65;;;;;;;;;;4983081;28;20117;-53
2023/04/21 01:12:40;;;;;;;20.15;11.75;;;;;;;;;;4978223;28;20031;-54
2023/04/21 01:15:06;;;;;;;19.23;11.93;;;;;;;;;;4980074;28;20034;-55
2023/04/21 01:17:31;;;;;;;19.83;11.38;;;;;;;;;;4973424;28;20034;-53
2023/04/21 01:19:59;;;;;;;14.73;9.40;;;;;;;;;;4978058;28;20035;-54
2023/04/21 01:22:25;;;;;;;15.70;9.68;;;;;;;;;;4990798;28;20193;-57
2023/04/21 01:24:51;;;;;;;13.60;9.02;;;;;;;;;;4995095;28;20125;-55
2023/04/21 01:27:17;;;;;;;16.70;9.80;;;;;;;;;;4976355;28;20146;-55
2023/04/21 01:29:45;;;;;;;15.07;10.13;;;;;;;;;;4962614;28;20139;-58
2023/04/21 01:32:12;;;;;;;13.15;8.75;;;;;;;;;;4977861;28;20061;-56
2023/04/21 01:34:38;;;;;;;14.23;9.32;;;;;;;;;;4981235;28;20041;-58
2023/04/21 01:37:05;;;;;;;14.07;9.32;;;;;;;;;;4980995;28;20042;-57
2023/04/21 01:39:31;;;;;;;15.00;9.85;;;;;;;;;;4976230;28;20066;-56
2023/04/21 01:41:56;;;;;;;14.82;9.48;;;;;;;;;;4980141;28;20065;-54
2023/04/21 01:44:23;;;;;;;18.10;11.57;;;;;;;;;;4976456;28;20030;-58
2023/04/21 01:46:50;;;;;;;17.40;10.65;;;;;;;;;;4990924;28;20092;-57
2023/04/21 01:49:16;;;;;;;16.83;10.53;;;;;;;;;;4993369;28;20465;-57
2023/04/21 01:51:42;;;;;;;20.45;12.50;;;;;;;;;;4976462;28;20039;-51
2023/04/21 01:54:07;;;;;;;20.35;12.38;;;;;;;;;;4979021;28;20090;-57
2023/04/21 01:56:32;;;;;;;18.13;11.38;;;;;;;;;;4982958;28;20038;-52
2023/04/21 01:58:58;;;;;;;19.55;11.85;;;;;;;;;;4976559;28;20040;-53
2023/04/21 02:01:23;;;;;;;16.40;10.88;;;;;;;;;;4977231;28;20034;-55
2023/04/21 02:03:49;;;;;;;18.92;11.57;;;;;;;;;;4975513;28;20026;-55
2023/04/21 02:06:14;;;;;;;16.27;11.13;;;;;;;;;;4978076;28;20488;-55
2023/04/21 02:08:39;;;;;;;16.80;10.52;;;;;;;;;;4983395;28;20022;-55
2023/04/21 02:11:06;;;;;;;17.63;10.60;;;;;;;;;;4976670;28;20409;-56
2023/04/21 02:13:31;;;;;;;17.52;10.52;;;;;;;;;;4977522;28;20385;-53
2023/04/21 02:15:56;;;;;;;15.65;10.70;;;;;;;;;;4994846;28;20411;-54
2023/04/21 02:18:22;;;;;;;15.48;10.45;;;;;;;;;;4982728;28;20045;-57
2023/04/21 02:20:47;;;;;;;17.00;11.18;;;;;;;;;;4976078;28;20026;-51
2023/04/21 02:23:12;;;;;;;18.65;12.60;;;;;;;;;;4977927;28;20054;-54
2023/04/21 02:25:38;;;;;;;18.90;11.82;;;;;;;;;;4978287;28;20018;-55
2023/04/21 02:28:03;;;;;;;20.98;13.02;;;;;;;;;;4976830;28;20486;-57
2023/04/21 02:30:29;;;;;;;19.42;12.18;;;;;;;;;;4978564;28;20056;-59
2023/04/21 02:32:55;;;;;;;19.80;12.15;;;;;;;;;;4978454;28;20027;-55
2023/04/21 02:35:20;;;;;;;21.20;12.73;;;;;;;;;;4991934;28;20534;-55
2023/04/21 02:37:45;;;;;;;19.88;12.20;;;;;;;;;;4983907;28;20034;-57
2023/04/21 02:40:11;;;;;;;20.77;12.95;;;;;;;;;;4975655;28;20038;-56
2023/04/21 02:42:36;;;;;;;24.10;14.32;;;;;;;;;;4975140;28;20030;-57
2023/04/21 02:45:02;;;;;;;22.75;13.65;;;;;;;;;;4980547;28;20133;-54
2023/04/21 02:47:27;;;;;;;23.80;14.15;;;;;;;;;;4976902;28;20023;-54
2023/04/21 02:49:52;;;;;;;24.33;15.20;;;;;;;;;;4976599;28;20654;-56
2023/04/21 02:52:18;;;;;;;22.90;13.82;;;;;;;;;;4975901;28;20030;-54
2023/04/21 02:54:43;;;;;;;23.85;13.93;;;;;;;;;;4975216;28;20045;-53
2023/04/21 02:57:09;;;;;;;22.65;13.38;;;;;;;;;;4982127;28;20673;-53
2023/04/21 02:59:34;;;;;;;18.63;12.05;;;;;;;;;;4979571;28;20395;-55
2023/04/21 03:01:59;;;;;;;19.88;12.52;;;;;;;;;;4979803;28;20034;-52
2023/04/21 03:04:25;;;;;;;20.75;12.68;;;;;;;;;;4975902;28;20508;-54
2023/04/21 03:06:51;;;;;;;18.83;11.88;;;;;;;;;;4976053;28;20046;-53
2023/04/21 03:09:16;;;;;;;20.25;12.75;;;;;;;;;;4980541;28;20558;-52
2023/04/21 03:11:41;;;;;;;21.02;13.23;;;;;;;;;;4980872;28;20034;-53
2023/04/21 03:14:07;;;;;;;19.45;12.32;;;;;;;;;;4979923;28;20035;-56
2023/04/21 03:16:32;;;;;;;20.15;12.20;;;;;;;;;;4979967;28;20089;-53
2023/04/21 03:18:58;;;;;;;17.75;11.23;;;;;;;;;;4981399;28;20396;-56
2023/04/21 03:21:23;;;;;;;18.23;11.07;;;;;;;;;;4975543;28;20046;-54
2023/04/21 03:23:48;;;;;;;16.88;10.85;;;;;;;;;;4977836;28;20030;-54
2023/04/21 03:26:13;;;;;;;15.82;10.75;;;;;;;;;;4982447;28;20034;-50
2023/04/21 03:28:39;;;;;;;20.05;11.18;;;;;;;;;;4980511;28;20045;-53
2023/04/21 03:31:04;;;;;;;17.77;10.88;;;;;;;;;;4990635;28;20148;-54
2023/04/21 03:33:30;;;;;;;17.02;10.60;;;;;;;;;;4977161;28;20085;-56
2023/04/21 03:35:55;;;;;;;17.30;10.48;;;;;;;;;;4975182;28;20077;-47
2023/04/21 03:38:20;;;;;;;16.52;10.05;;;;;;;;;;4980573;28;20486;-52
2023/04/21 03:40:45;;;;;;;15.95;10.48;;;;;;;;;;4977540;28;20042;-51
2023/04/21 03:43:11;;;;;;;18.77;11.90;;;;;;;;;;4980935;28;20124;-50
2023/04/21 03:45:37;;;;;;;17.92;11.38;;;;;;;;;;4978890;28;20066;-52
2023/04/21 03:48:02;;;;;;;16.67;11.10;;;;;;;;;;4978776;28;20034;-51
2023/04/21 03:50:28;;;;;;;17.98;10.95;;;;;;;;;;4974457;28;20145;-53
2023/04/21 03:52:53;;;;;;;18.77;11.85;;;;;;;;;;4972201;28;20381;-54
2023/04/21 03:55:18;;;;;;;18.95;12.23;;;;;;;;;;4976974;28;20039;-52
2023/04/21 03:57:44;;;;;;;17.13;10.85;;;;;;;;;;4982350;28;20039;-52
2023/04/21 04:00:10;;;;;;;17.85;10.68;;;;;;;;;;4977933;28;20357;-53
2023/04/21 04:02:38;;;;;;;18.38;11.13;;;;;;;;;;4974211;28;20189;-55
2023/04/21 04:05:04;;;;;;;17.92;11.13;;;;;;;;;;4975741;28;20038;-52
2023/04/21 04:07:30;;;;;;;21.67;11.75;;;;;;;;;;4975838;28;20117;-53
2023/04/21 04:09:55;;;;;;;17.77;10.43;;;;;;;;;;4976270;28;20045;-51
2023/04/21 04:12:20;;;;;;;15.25;10.13;;;;;;;;;;4977650;28;20034;-55
2023/04/21 04:14:46;;;;;;;16.95;10.50;;;;;;;;;;4976610;28;20486;-51
2023/04/21 04:17:11;;;;;;;18.25;11.50;;;;;;;;;;4978654;28;20038;-52
2023/04/21 04:19:36;;;;;;;17.58;11.30;;;;;;;;;;4974628;28;20089;-54
2023/04/21 04:22:02;;;;;;;18.10;11.93;;;;;;;;;;4974407;28;20464;-54
2023/04/21 04:24:27;;;;;;;19.52;12.18;;;;;;;;;;4980096;28;20951;-56
2023/04/21 04:26:53;;;;;;;22.48;12.95;;;;;;;;;;4977179;28;20070;-52
2023/04/21 04:29:20;;;;;;;21.05;12.45;;;;;;;;;;4975252;28;20030;-56
2023/04/21 04:31:45;;;;;;;29.02;14.23;;;;;;;;;;4974852;28;20673;-53
2023/04/21 04:34:11;;;;;;;19.60;12.20;;;;;;;;;;4974405;28;20130;-51
2023/04/21 04:36:36;;;;;;;22.52;12.80;;;;;;;;;;4973842;28;20042;-52
2023/04/21 04:39:01;;;;;;;18.67;12.63;;;;;;;;;;4982534;28;20034;-53
2023/04/21 04:41:29;;;;;;;34.60;13.52;;;;;;;;;;4977553;28;20080;-53
2023/04/21 04:43:56;;;;;;;18.80;12.60;;;;;;;;;;4978147;28;20030;-57
2023/04/21 04:46:23;;;;;;;25.23;14.75;;;;;;;;;;4977693;28;20042;-53
2023/04/21 04:48:48;;;;;;;73.55;15.98;;;;;;;;;;4993919;28;20038;-59
2023/04/21 04:51:15;;;;;;;26.67;14.77;;;;;;;;;;4977252;28;20037;-57
2023/04/21 04:53:40;;;;;;;27.27;15.18;;;;;;;;;;4978522;28;20026;-54
2023/04/21 04:56:06;;;;;;;71.43;17.75;;;;;;;;;;4981494;28;20041;-55
2023/04/21 04:58:31;;;;;;;23.02;14.05;;;;;;;;;;4994269;28;20035;-52
2023/04/21 05:00:56;;;;;;;21.35;14.25;;;;;;;;;;4978510;28;20105;-56
2023/04/21 05:03:21;;;;;;;25.50;15.35;;;;;;;;;;4976780;28;20036;-57
2023/04/21 05:05:47;;;;;;;25.20;15.15;;;;;;;;;;4983927;28;20072;-55
2023/04/21 05:08:12;;;;;;;33.17;15.55;;;;;;;;;;4976711;28;20036;-56
2023/04/21 05:10:37;;;;;;;22.63;13.80;;;;;;;;;;4978099;28;20031;-58
2023/04/21 05:13:03;;;;;;;24.38;13.65;;;;;;;;;;4974017;28;20472;-53
2023/04/21 05:15:28;;;;;;;66.72;14.75;;;;;;;;;;4980961;28;20128;-56
2023/04/21 05:17:53;;;;;;;26.95;14.40;;;;;;;;;;4980182;28;20062;-57
2023/04/21 05:20:19;;;;;;;26.83;14.07;;;;;;;;;;4977736;28;20037;-52
2023/04/21 05:22:44;;;;;;;29.80;16.00;;;;;;;;;;4976693;28;20074;-52
2023/04/21 05:25:11;;;;;;;23.80;14.48;;;;;;;;;;4978770;28;20153;-55
2023/04/21 05:27:36;;;;;;;26.17;15.25;;;;;;;;;;4977607;28;20777;-54
2023/04/21 05:30:01;;;;;;;21.38;14.05;;;;;;;;;;4977443;28;20420;-56
2023/04/21 05:32:28;;;;;;;23.50;14.77;;;;;;;;;;4978034;28;20113;-55
2023/04/21 05:34:53;;;;;;;26.25;14.73;;;;;;;;;;4981416;28;20058;-53
2023/04/21 05:37:18;;;;;;;24.92;15.25;;;;;;;;;;4976600;28;20034;-52
2023/04/21 05:39:44;;;;;;;20.70;13.68;;;;;;;;;;4979884;28;20117;-57
2023/04/21 05:42:10;;;;;;;21.33;13.90;;;;;;;;;;4977628;28;20428;-54
2023/04/21 05:44:35;;;;;;;21.10;13.93;;;;;;;;;;4977973;28;20072;-58
2023/04/21 05:47:01;;;;;;;21.55;13.63;;;;;;;;;;4978530;28;20066;-58
2023/04/21 05:49:26;;;;;;;19.73;13.18;;;;;;;;;;4977833;28;20042;-56
2023/04/21 05:51:51;;;;;;;20.23;13.43;;;;;;;;;;4983103;28;20068;-55
2023/04/21 05:54:16;;;;;;;19.95;14.35;;;;;;;;;;4976039;28;20544;-56
2023/04/21 05:56:42;;;;;;;17.38;12.88;;;;;;;;;;4980292;28;20042;-56
2023/04/21 05:59:07;;;;;;;17.67;12.35;;;;;;;;;;4976465;28;20106;-58
2023/04/21 06:01:32;;;;;;;16.88;12.57;;;;;;;;;;4978514;28;20048;-55
2023/04/21 06:03:58;;;;;;;20.45;13.57;;;;;;;;;;4976657;28;20057;-54
2023/04/21 06:06:24;;;;;;;16.80;12.32;;;;;;;;;;4975295;28;20031;-56
2023/04/21 06:08:50;;;;;;;20.98;13.52;;;;;;;;;;4991031;28;20066;-55
2023/04/21 06:11:15;;;;;;;21.42;14.15;;;;;;;;;;4979676;28;20054;-58
2023/04/21 06:13:41;;;;;;;24.40;17.02;;;;;;;;;;4974542;28;20026;-53
2023/04/21 06:16:06;;;;;;;21.85;15.70;;;;;;;;;;4975424;28;20456;-57
2023/04/21 06:18:31;;;;;;;20.98;15.13;;;;;;;;;;4977255;28;20042;-57
2023/04/21 06:20:57;;;;;;;22.23;14.65;;;;;;;;;;4976449;28;20110;-53
2023/04/21 06:23:22;;;;;;;19.90;13.75;;;;;;;;;;4978725;28;20034;-58
2023/04/21 06:26:00;;;;;;;23.20;14.80;;;;;;;;;;4980105;28;20121;-52
2023/04/21 06:28:25;;;;;;;21.10;14.55;;;;;;;;;;4977177;28;20080;-55
2023/04/21 06:30:50;;;;;;;23.23;15.02;;;;;;;;;;4974391;28;20030;-57
2023/04/21 06:33:16;;;;;;;22.10;13.55;;;;;;;;;;4975133;28;20062;-54
2023/04/21 06:35:41;;;;;;;20.58;13.60;;;;;;;;;;4979616;28;20487;-56
2023/04/21 06:38:07;;;;;;;18.08;12.52;;;;;;;;;;4974897;28;20026;-56
2023/04/21 06:40:32;;;;;;;16.95;11.85;;;;;;;;;;4976752;28;20022;-57
2023/04/21 06:42:58;;;;;;;16.65;12.40;;;;;;;;;;4980866;28;20483;-57
2023/04/21 06:45:23;;;;;;;17.40;12.07;;;;;;;;;;4973844;28;20089;-58
2023/04/21 06:47:48;;;;;;;16.35;11.65;;;;;;;;;;4981350;28;20030;-55
2023/04/21 06:50:13;;;;;;;15.70;11.27;;;;;;;;;;4979517;28;20062;-57
2023/04/21 06:52:39;;;;;;;16.90;11.95;;;;;;;;;;4979266;28;20373;-56
2023/04/21 06:55:05;;;;;;;16.45;11.27;;;;;;;;;;4973664;28;20468;-53
2023/04/21 06:57:30;;;;;;;17.50;11.48;;;;;;;;;;4976189;28;20026;-54
2023/04/21 06:59:55;;;;;;;16.25;11.57;;;;;;;;;;4981108;28;20049;-54
2023/04/21 07:02:21;;;;;;;17.45;11.55;;;;;;;;;;4979169;28;20088;-56
2023/04/21 07:04:46;;;;;;;18.88;12.77;;;;;;;;;;4976400;28;20093;-51
2023/04/21 07:07:13;;;;;;;18.00;12.52;;;;;;;;;;4976135;28;20096;-58
2023/04/21 07:09:38;;;;;;;16.20;11.30;;;;;;;;;;4979761;28;20026;-55
2023/04/21 07:12:03;;;;;;;16.13;11.00;;;;;;;;;;4977409;28;20069;-56
2023/04/21 07:14:29;;;;;;;15.90;10.90;;;;;;;;;;4979960;28;20026;-57
2023/04/21 07:16:56;;;;;;;15.48;10.75;;;;;;;;;;4974765;28;20030;-57
2023/04/21 07:19:21;;;;;;;14.60;10.32;;;;;;;;;;4977849;28;20510;-55
2023/04/21 07:21:46;;;;;;;15.98;10.80;;;;;;;;;;4976132;28;20027;-51
2023/04/21 07:24:12;;;;;;;15.68;10.48;;;;;;;;;;4974442;28;20034;-55
2023/04/21 07:26:37;;;;;;;15.93;10.93;;;;;;;;;;4978953;28;20062;-55
2023/04/21 07:29:02;;;;;;;14.23;10.02;;;;;;;;;;4978501;28;20045;-49
2023/04/21 07:31:28;;;;;;;14.52;9.75;;;;;;;;;;4970416;28;20182;-57
2023/04/21 07:33:53;;;;;;;14.05;9.73;;;;;;;;;;4975078;28;20061;-55
2023/04/21 07:36:18;;;;;;;15.13;9.82;;;;;;;;;;4971778;28;20073;-53
2023/04/21 07:38:44;;;;;;;13.40;9.30;;;;;;;;;;4957503;28;20141;-57
2023/04/21 07:41:10;;;;;;;15.38;10.95;;;;;;;;;;4978525;28;20519;-52
2023/04/21 07:43:36;;;;;;;13.82;9.90;;;;;;;;;;4984225;28;20042;-54
2023/04/21 07:46:01;;;;;;;12.35;8.85;;;;;;;;;;4982400;28;20051;-52
2023/04/21 07:48:26;;;;;;;14.73;8.88;;;;;;;;;;4976894;28;20031;-54
2023/04/21 07:50:52;;;;;;;13.35;9.32;;;;;;;;;;4981993;28;20034;-53
2023/04/21 07:53:17;;;;;;;13.48;9.40;;;;;;;;;;4984309;28;20439;-56
2023/04/21 07:55:43;;;;;;;12.02;8.25;;;;;;;;;;4983025;28;20042;-55
2023/04/21 07:58:09;;;;;;;12.93;8.80;;;;;;;;;;4982808;28;20034;-55
2023/04/21 08:00:34;;;;;;;12.10;8.82;;;;;;;;;;4981279;28;20039;-54
2023/04/21 08:03:00;;;;;;;13.27;8.60;;;;;;;;;;4984418;28;20051;-57
2023/04/21 08:05:25;;;;;;;11.75;8.90;;;;;;;;;;4980220;28;20033;-55
2023/04/21 08:07:51;;;;;;;12.85;8.60;;;;;;;;;;4975510;28;20035;-53
2023/04/21 08:10:16;;;;;;;12.88;8.82;;;;;;;;;;4977339;28;20172;-56
2023/04/21 08:12:42;;;;;;;14.98;9.38;;;;;;;;;;4963092;28;20464;-56
2023/04/21 08:15:07;;;;;;;12.38;8.65;;;;;;;;;;4980920;28;20436;-53
2023/04/21 08:17:33;;;;;;;12.38;8.75;;;;;;;;;;4969414;28;20472;-58
2023/04/21 08:19:59;;;;;;;12.43;8.73;;;;;;;;;;4993860;28;20035;-56
2023/04/21 08:22:24;;;;;;;12.65;9.52;;;;;;;;;;4979280;28;20062;-55
2023/04/21 08:24:50;;;;;;;13.45;9.00;;;;;;;;;;4977880;28;20026;-56
2023/04/21 08:27:15;;;;;;;13.43;9.13;;;;;;;;;;4979919;28;20167;-56
2023/04/21 08:29:40;;;;;;;14.82;10.77;;;;;;;;;;4981310;28;20105;-55
2023/04/21 08:32:06;;;;;;;16.73;10.07;;;;;;;;;;4979740;28;20038;-59
2023/04/21 08:34:31;;;;;;;14.75;9.73;;;;;;;;;;4978764;28;20030;-59
2023/04/21 08:36:56;;;;;;;15.50;10.35;;;;;;;;;;4980037;28;20066;-53
2023/04/21 08:39:21;;;;;;;14.10;9.20;;;;;;;;;;4979064;28;20334;-54
2023/04/21 08:41:47;;;;;;;12.57;8.50;;;;;;;;;;4980207;28;20027;-54
2023/04/21 08:44:14;;;;;;;11.85;8.65;;;;;;;;;;4979069;28;20030;-55
2023/04/21 08:46:39;;;;;;;14.50;9.18;;;;;;;;;;4980087;28;20038;-52
2023/04/21 08:49:05;;;;;;;12.52;8.73;;;;;;;;;;4978693;28;20034;-58
2023/04/21 08:51:30;;;;;;;12.75;8.57;;;;;;;;;;4976533;28;20106;-56
2023/04/21 08:53:56;;;;;;;13.30;8.85;;;;;;;;;;4978662;28;20104;-56
2023/04/21 08:56:27;;;;;;;11.07;8.20;;;;;;;;;;4978968;28;20057;-56
2023/04/21 08:58:53;;;;;;;11.32;7.30;;;;;;;;;;4980195;28;20502;-56
2023/04/21 09:01:18;;;;;;;9.98;7.75;;;;;;;;;;4992770;28;20027;-55
2023/04/21 09:03:44;;;;;;;12.90;7.97;;;;;;;;;;4977656;28;20030;-58
2023/04/21 09:06:11;;;;;;;10.75;7.60;;;;;;;;;;4978371;28;20037;-56
2023/04/21 09:08:38;;;;;;;13.57;8.70;;;;;;;;;;4981688;28;20025;-56
2023/04/21 09:11:04;;;;;;;9.68;7.20;;;;;;;;;;4980309;28;20038;-56
2023/04/21 09:13:30;;;;;;;11.10;7.07;;;;;;;;;;4962331;28;20049;-57
2023/04/21 09:15:55;;;;;;;9.55;6.93;;;;;;;;;;4980777;28;20133;-54
2023/04/21 09:18:21;;;;;;;12.18;7.65;;;;;;;;;;4982338;28;20122;-54
2023/04/21 09:20:48;;;;;;;10.57;7.38;;;;;;;;;;4979249;28;20030;-54
2023/04/21 09:23:13;;;;;;;11.63;7.40;;;;;;;;;;4979734;28;20014;-54
2023/04/21 09:25:39;;;;;;;11.20;8.27;;;;;;;;;;4976168;28;20370;-53
2023/04/21 09:28:11;;;;;;;11.27;8.27;;;;;;;;;;4980809;28;20583;-55
2023/04/21 09:30:37;;;;;;;12.63;8.55;;;;;;;;;;4979486;28;20041;-55
2023/04/21 09:33:03;;;;;;;11.98;8.05;;;;;;;;;;4980176;28;20396;-55
2023/04/21 09:35:32;;;;;;;11.35;7.78;;;;;;;;;;4980977;28;20472;-55
2023/04/21 09:37:59;;;;;;;12.00;8.13;;;;;;;;;;4993056;28;20034;-59
2023/04/21 09:40:24;;;;;;;12.30;8.38;;;;;;;;;;4977279;28;20638;-56
2023/04/21 09:42:50;;;;;;;13.00;7.90;;;;;;;;;;4976432;28;20041;-56
2023/04/21 09:45:16;;;;;;;14.40;9.07;;;;;;;;;;4979659;28;20034;-54
2023/04/21 09:47:41;;;;;;;11.50;8.35;;;;;;;;;;4976779;28;20542;-55
2023/04/21 09:50:08;;;;;;;12.88;9.05;;;;;;;;;;4975003;28;20370;-54
2023/04/21 09:52:34;;;;;;;16.08;8.93;;;;;;;;;;4990658;28;20034;-59
2023/04/21 09:55:03;;;;;;;13.65;9.38;;;;;;;;;;4991702;28;20117;-56
2023/04/21 09:57:29;;;;;;;12.35;8.32;;;;;;;;;;4977662;28;20027;-54
2023/04/21 09:59:58;;;;;;;11.95;8.25;;;;;;;;;;4993791;28;20038;-54
2023/04/21 10:02:25;;;;;;;11.20;8.07;;;;;;;;;;4981012;28;20149;-56
2023/04/21 10:04:51;;;;;;;11.57;8.20;;;;;;;;;;4978467;28;20045;-55
2023/04/21 10:07:16;;;;;;;12.85;8.65;;;;;;;;;;4979031;28;20034;-50
2023/04/21 10:09:46;;;;;;;12.60;9.05;;;;;;;;;;4978246;28;20271;-55
2023/04/21 10:12:12;;;;;;;13.32;9.07;;;;;;;;;;4978350;28;20046;-53
2023/04/21 10:14:38;;;;;;;14.57;9.53;;;;;;;;;;4977832;28;20887;-56
2023/04/21 10:17:04;;;;;;;12.02;9.05;;;;;;;;;;4977168;28;20038;-57
2023/04/21 10:19:35;;;;;;;12.82;8.90;;;;;;;;;;4976312;28;20026;-60
2023/04/21 10:22:00;;;;;;;11.57;8.70;;;;;;;;;;4977196;28;20418;-57
2023/04/21 10:24:29;;;;;;;12.10;8.95;;;;;;;;;;4978474;28;20691;-56
2023/04/21 10:26:58;;;;;;;12.18;8.70;;;;;;;;;;4983414;28;20049;-54
2023/04/21 10:29:27;;;;;;;15.95;9.73;;;;;;;;;;4983681;28;20271;-52
2023/04/21 10:31:53;;;;;;;10.77;8.00;;;;;;;;;;4990878;28;20113;-55
2023/04/21 10:34:29;;;;;;;10.40;7.78;;;;;;;;;;4976679;28;20635;-54
2023/04/21 10:36:54;;;;;;;10.98;7.95;;;;;;;;;;4978851;28;20038;-53
2023/04/21 10:39:26;;;;;;;11.57;8.05;;;;;;;;;;4978403;28;20444;-56
2023/04/21 10:41:53;;;;;;;11.75;8.43;;;;;;;;;;4977756;28;20130;-53
2023/04/21 10:44:20;;;;;;;10.82;8.43;;;;;;;;;;4975774;28;20031;-57
2023/04/21 10:46:47;;;;;;;12.85;9.07;;;;;;;;;;4979019;28;20121;-56
2023/04/21 10:49:25;;;;;;;12.40;8.70;;;;;;;;;;4974924;28;20030;-55
2023/04/21 10:52:01;;;;;;;12.93;8.35;;;;;;;;;;4975003;28;20065;-50
2023/04/21 10:54:28;;;;;;;13.70;9.20;;;;;;;;;;4976434;28;20034;-56
2023/04/21 10:56:53;;;;;;;;;;;;;;;;;;4978318;28;20034;-57
2023/04/21 10:59:19;;;;;;;13.40;9.30;;;;;;;;;;4974624;28;19991;-57
2023/04/21 11:01:44;;;;;;;10.85;7.82;;;;;;;;;;4981113;28;20045;-57
2023/04/21 11:04:16;;;;;;;10.65;7.80;;;;;;;;;;4976907;28;20588;-57
2023/04/21 11:06:41;;;;;;;15.27;9.20;;;;;;;;;;4997874;28;20069;-53
2023/04/21 11:09:08;;;;;;;14.68;9.82;;;;;;;;;;4974030;28;20126;-54
2023/04/21 11:11:35;;;;;;;13.82;9.32;;;;;;;;;;4976088;28;20026;-52
2023/04/21 11:14:00;;;;;;;;;;;;;;;;;;4975918;28;20042;-57
2023/04/21 11:16:25;;;;;;;14.83;8.33;;;;;;;;;;4979552;28;19928;-53
2023/04/21 11:18:51;;;;;;;11.75;8.52;;;;;;;;;;4979082;28;20054;-52
2023/04/21 11:21:17;;;;;;;12.27;7.72;;;;;;;;;;4976796;28;20027;-55
2023/04/21 11:23:48;;;;;;;11.65;7.55;;;;;;;;;;4976674;28;20504;-54
2023/04/21 11:26:14;;;;;;;11.02;7.88;;;;;;;;;;4976142;28;20507;-51
2023/04/21 11:28:40;;;;;;;10.80;7.80;;;;;;;;;;4974651;28;20031;-55
2023/04/21 11:31:06;;;;;;;12.13;8.27;;;;;;;;;;4977811;28;20039;-54
2023/04/21 11:33:36;;;;;;;9.77;7.30;;;;;;;;;;4976494;28;20045;-50
2023/04/21 11:36:07;;;;;;;10.27;6.78;;;;;;;;;;4977711;28;20043;-52
2023/04/21 11:38:37;;;;;;;10.13;7.00;;;;;;;;;;4978732;28;20034;-54
2023/04/21 11:41:03;;;;;;;16.50;8.23;;;;;;;;;;4976462;28;20116;-57
2023/04/21 11:43:29;;;;;;;13.00;9.65;;;;;;;;;;4974788;28;20038;-54
2023/04/21 11:45:54;;;;;;;12.20;8.87;;;;;;;;;;4971784;28;20039;-55
2023/04/21 11:48:19;;;;;;;11.17;9.20;;;;;;;;;;4978173;28;20474;-51
2023/04/21 11:50:49;;;;;;;12.37;8.87;;;;;;;;;;4979439;28;20034;-55
2023/04/21 11:53:14;;;;;;;12.13;9.05;;;;;;;;;;4981971;28;20030;-53
2023/04/21 11:55:44;;;;;;;11.07;8.23;;;;;;;;;;4982469;28;20407;-54
2023/04/21 11:58:11;;;;;;;11.55;7.72;;;;;;;;;;4982791;28;20030;-54
2023/04/21 12:00:36;;;;;;;11.27;8.35;;;;;;;;;;4982105;28;20508;-55
2023/04/21 12:03:01;;;;;;;10.73;8.10;;;;;;;;;;4982171;28;20536;-55
2023/04/21 12:05:34;;;;;;;9.77;7.67;;;;;;;;;;4978233;28;20039;-52
2023/04/21 12:08:00;;;;;;;10.25;7.90;;;;;;;;;;4988114;28;20035;-54
2023/04/21 12:10:27;;;;;;;9.85;7.50;;;;;;;;;;4979573;28;20492;-55
2023/04/21 12:12:54;;;;;;;10.20;7.10;;;;;;;;;;4977660;28;20030;-58
2023/04/21 12:15:21;;;;;;;13.15;8.48;;;;;;;;;;4980954;28;20049;-55
2023/04/21 12:17:48;;;;;;;13.77;7.25;;;;;;;;;;4982268;28;20037;-54
2023/04/21 12:20:18;;;;;;;9.48;6.82;;;;;;;;;;4979699;28;20026;-59
2023/04/21 12:22:43;;;;;;;10.00;7.63;;;;;;;;;;4982947;28;20042;-54
2023/04/21 12:25:09;;;;;;;8.73;6.80;;;;;;;;;;4983318;28;20035;-53
2023/04/21 12:27:34;;;;;;;9.50;6.93;;;;;;;;;;4982337;28;20181;-56
2023/04/21 12:29:59;;;;;;;10.20;8.25;;;;;;;;;;4980852;28;20033;-57
2023/04/21 12:32:25;;;;;;;9.52;7.50;;;;;;;;;;4979185;28;20782;-55
2023/04/21 12:34:50;;;;;;;9.55;7.47;;;;;;;;;;4980354;28;20384;-54
2023/04/21 12:37:17;;;;;;;9.27;7.53;;;;;;;;;;4980149;28;20041;-56
2023/04/21 12:39:42;;;;;;;12.45;7.90;;;;;;;;;;4993071;28;20369;-53
2023/04/21 12:42:08;;;;;;;9.33;7.77;;;;;;;;;;4997001;28;20504;-53
2023/04/21 12:44:33;;;;;;;8.33;6.23;;;;;;;;;;4978511;28;20527;-54
2023/04/21 12:46:58;;;;;;;8.33;6.43;;;;;;;;;;4977888;28;20042;-56
2023/04/21 12:49:24;;;;;;;9.23;6.63;;;;;;;;;;4978212;28;20030;-56
2023/04/21 12:51:49;;;;;;;9.45;5.80;;;;;;;;;;4981103;28;20138;-54
2023/04/21 12:54:15;;;;;;;9.20;5.97;;;;;;;;;;4979336;28;20114;-50
2023/04/21 12:56:41;;;;;;;8.87;5.87;;;;;;;;;;4978750;28;20041;-56
2023/04/21 12:59:08;;;;;;;7.25;4.88;;;;;;;;;;4978777;28;20037;-57
2023/04/21 13:01:34;;;;;;;7.10;4.60;;;;;;;;;;4978752;28;20101;-54
2023/04/21 13:03:59;;;;;;;7.20;4.75;;;;;;;;;;4995619;28;20026;-54
2023/04/21 13:06:25;;;;;;;6.37;4.70;;;;;;;;;;4979019;28;20424;-56
2023/04/21 13:08:50;;;;;;;6.57;4.90;;;;;;;;;;4982971;28;20031;-59
2023/04/21 13:11:15;;;;;;;7.00;4.50;;;;;;;;;;4995429;28;20814;-54
2023/04/21 13:13:41;;;;;;;6.93;4.93;;;;;;;;;;4978790;28;20445;-57
2023/04/21 13:16:06;;;;;;;6.47;4.80;;;;;;;;;;4977260;28;20049;-56
2023/04/21 13:18:33;;;;;;;6.73;4.30;;;;;;;;;;4977036;28;20023;-50
2023/04/21 13:20:59;;;;;;;7.07;4.72;;;;;;;;;;4979936;28;20046;-54
2023/04/21 13:23:24;;;;;;;6.23;4.93;;;;;;;;;;4977256;28;20034;-54
2023/04/21 13:25:50;;;;;;;7.10;4.93;;;;;;;;;;4978467;28;20276;-55
2023/04/21 13:28:16;;;;;;;6.50;4.80;;;;;;;;;;4979376;28;20030;-54
2023/04/21 13:30:41;;;;;;;6.63;4.45;;;;;;;;;;4980903;28;20035;-56
2023/04/21 13:33:07;;;;;;;7.00;4.73;;;;;;;;;;4980617;28;20102;-56
2023/04/21 13:35:32;;;;;;;6.47;4.90;;;;;;;;;;4978362;28;20127;-54
2023/04/21 13:37:57;;;;;;;7.00;4.83;;;;;;;;;;4977486;28;20030;-55
2023/04/21 13:40:23;;;;;;;5.27;4.30;;;;;;;;;;4978055;28;20304;-55
2023/04/21 13:42:48;;;;;;;6.73;4.33;;;;;;;;;;4979213;28;20451;-55
2023/04/21 13:45:13;;;;;;;6.17;4.47;;;;;;;;;;4980106;28;20041;-55
2023/04/21 13:47:39;;;;;;;5.87;4.13;;;;;;;;;;4979134;28;20764;-54
2023/04/21 13:50:04;;;;;;;6.30;4.07;;;;;;;;;;4976806;28;20063;-57
2023/04/21 13:52:30;;;;;;;5.95;4.78;;;;;;;;;;4978158;28;20053;-56
2023/04/21 13:54:55;;;;;;;;;;;;;;;;;;4978100;28;20035;-57
2023/04/21 13:57:20;;;;;;;5.47;4.00;;;;;;;;;;4980979;28;20009;-56
2023/04/21 13:59:46;;;;;;;;;;;;;;;;;;4984907;28;20038;-55
2023/04/21 14:02:11;;;;;;;5.03;3.50;;;;;;;;;;4977850;28;19920;-55
2023/04/21 14:04:36;;;;;;;6.13;3.90;;;;;;;;;;4978514;28;20026;-54
2023/04/21 14:07:02;;;;;;;5.57;3.67;;;;;;;;;;4979152;28;20041;-56
2023/04/21 14:09:27;;;;;;;5.47;3.80;;;;;;;;;;4978632;28;20523;-56
2023/04/21 14:11:53;;;;;;;8.60;4.30;;;;;;;;;;4976143;28;20519;-53
2023/04/21 14:14:18;;;;;;;6.35;4.40;;;;;;;;;;4975157;28;20019;-56
2023/04/21 14:16:47;;;;;;;6.00;4.32;;;;;;;;;;4982255;28;20816;-55
2023/04/21 14:19:14;;;;;;;7.28;4.22;;;;;;;;;;4978785;28;20140;-58